createdAt,value
2023-02-28T00:02:25.093Z,-35.50
2023-02-28T00:04:54.081Z,-35.52
2023-02-28T00:07:20.591Z,-35.62
2023-02-28T00:09:47.076Z,-35.49
2023-02-28T00:12:13.625Z,-35.53
2023-02-28T00:14:40.103Z,-35.58
2023-02-28T00:17:06.550Z,-35.58
2023-02-28T00:19:33.151Z,-35.58
2023-02-28T00:21:59.598Z,-35.62
2023-02-28T00:24:26.175Z,-35.58
2023-02-28T00:26:52.879Z,-35.56
2023-02-28T00:29:19.370Z,-35.63
2023-02-28T00:31:45.977Z,-35.69
2023-02-28T00:34:12.551Z,-35.70
2023-02-28T00:36:39.093Z,-35.70
2023-02-28T00:39:05.745Z,-35.79
2023-02-28T00:41:32.644Z,-35.77
2023-02-28T00:43:59.135Z,-35.81
2023-02-28T00:46:25.815Z,-35.86
2023-02-28T00:48:52.351Z,-35.82
2023-02-28T00:51:18.890Z,-35.85
2023-02-28T00:53:45.564Z,-35.82
2023-02-28T00:56:12.034Z,-35.77
2023-02-28T00:58:38.643Z,-35.77
2023-02-28T01:01:05.603Z,-35.79
2023-02-28T01:03:32.180Z,-35.77
2023-02-28T01:05:58.897Z,-35.77
2023-02-28T01:08:26.966Z,-35.82
2023-02-28T01:10:53.816Z,-35.84
2023-02-28T01:13:20.658Z,-35.84
2023-02-28T01:15:53.862Z,-35.95
2023-02-28T01:18:20.782Z,-35.92
2023-02-28T01:20:47.732Z,-35.90
2023-02-28T01:23:14.406Z,-35.95
2023-02-28T01:25:41.109Z,-36.03
2023-02-28T01:28:07.674Z,-36.07
2023-02-28T01:30:34.405Z,-36.08
2023-02-28T01:33:00.954Z,-36.20
2023-02-28T01:35:27.416Z,-36.20
2023-02-28T01:37:54.353Z,-36.37
2023-02-28T01:40:21.051Z,-36.45
2023-02-28T01:42:47.488Z,-36.53
2023-02-28T01:45:27.149Z,-36.40
2023-02-28T01:47:57.398Z,-36.32
2023-02-28T01:50:27.298Z,-36.43
2023-02-28T01:52:56.126Z,-36.39
2023-02-28T01:55:23.476Z,-36.38
2023-02-28T01:57:53.605Z,-36.43
2023-02-28T02:00:24.725Z,-36.54
2023-02-28T02:02:53.962Z,-36.48
2023-02-28T02:05:25.452Z,-36.49
2023-02-28T02:08:02.661Z,-36.46
2023-02-28T02:10:41.016Z,-36.47
2023-02-28T02:13:30.676Z,-36.47
2023-02-28T02:16:12.305Z,-36.62
2023-02-28T02:18:43.289Z,-36.48
2023-02-28T02:21:12.722Z,-36.54
2023-02-28T02:23:53.048Z,-36.50
2023-02-28T02:26:22.320Z,-36.49
2023-02-28T02:29:10.178Z,-36.55
2023-02-28T02:31:58.286Z,-36.64
2023-02-28T02:34:39.197Z,-36.56
2023-02-28T02:37:14.258Z,-36.61
2023-02-28T02:39:53.272Z,-36.51
2023-02-28T02:42:28.771Z,-36.48
2023-02-28T02:45:02.714Z,-36.53
2023-02-28T02:47:31.834Z,-36.50
2023-02-28T02:50:01.942Z,-36.49
2023-02-28T02:52:35.613Z,-36.59
2023-02-28T02:55:03.511Z,-36.61
2023-02-28T02:57:46.308Z,-36.64
2023-02-28T03:00:13.332Z,-36.70
2023-02-28T03:02:40.333Z,-36.65
2023-02-28T03:05:10.313Z,-36.64
2023-02-28T03:07:36.862Z,-36.65
2023-02-28T03:10:03.549Z,-36.67
2023-02-28T03:12:38.465Z,-36.79
2023-02-28T03:15:24.994Z,-36.78
2023-02-28T03:18:20.836Z,-36.71
2023-02-28T03:20:50.520Z,-36.78
2023-02-28T03:23:32.633Z,-36.88
2023-02-28T03:26:03.366Z,-36.79
2023-02-28T03:28:38.049Z,-36.63
2023-02-28T03:31:11.252Z,-36.59
2023-02-28T03:33:42.244Z,-36.66
2023-02-28T03:36:15.945Z,-36.64
2023-02-28T03:38:50.457Z,-36.65
2023-02-28T03:41:25.589Z,-36.60
2023-02-28T03:44:16.760Z,-36.64
2023-02-28T03:46:49.139Z,-36.67
2023-02-28T03:49:19.805Z,-36.64
2023-02-28T03:51:47.226Z,-36.75
2023-02-28T03:54:20.761Z,-36.73
2023-02-28T03:56:57.132Z,-36.81
2023-02-28T03:59:29.641Z,-36.79
2023-02-28T04:01:59.313Z,-36.76
2023-02-28T04:04:25.887Z,-36.74
2023-02-28T04:06:53.336Z,-36.73
2023-02-28T04:09:19.985Z,-36.78
2023-02-28T04:11:52.726Z,-36.87
2023-02-28T04:14:19.735Z,-36.90
2023-02-28T04:16:46.571Z,-36.87
2023-02-28T04:19:14.076Z,-36.75
2023-02-28T04:21:58.599Z,-36.75
2023-02-28T04:24:27.170Z,-36.70
2023-02-28T04:26:55.862Z,-36.78
2023-02-28T04:29:28.221Z,-36.84
2023-02-28T04:31:56.295Z,-36.91
2023-02-28T04:34:22.797Z,-36.78
2023-02-28T04:37:10.072Z,-36.78
2023-02-28T04:39:38.340Z,-36.92
2023-02-28T04:42:05.438Z,-36.79
2023-02-28T04:44:32.528Z,-36.88
2023-02-28T04:46:59.013Z,-36.90
2023-02-28T04:49:25.870Z,-37.03
2023-02-28T04:51:53.828Z,-37.16
2023-02-28T04:54:20.618Z,-37.19
2023-02-28T04:56:47.375Z,-37.15
2023-02-28T04:59:13.809Z,-37.06
2023-02-28T05:01:40.270Z,-36.97
2023-02-28T05:04:07.240Z,-36.96
2023-02-28T05:06:34.494Z,-36.86
2023-02-28T05:09:01.021Z,-36.85
2023-02-28T05:11:30.784Z,-36.86
2023-02-28T05:13:57.485Z,-36.93
2023-02-28T05:16:24.047Z,-36.79
2023-02-28T05:18:50.981Z,-36.81
2023-02-28T05:21:27.516Z,-36.79
2023-02-28T05:23:54.673Z,-36.84
2023-02-28T05:26:21.464Z,-36.79
2023-02-28T05:28:48.001Z,-36.64
2023-02-28T05:31:14.771Z,-36.66
2023-02-28T05:33:41.232Z,-36.60
2023-02-28T05:36:08.126Z,-36.66
2023-02-28T05:38:36.285Z,-36.57
2023-02-28T05:41:08.657Z,-36.63
2023-02-28T05:43:35.629Z,-36.59
2023-02-28T05:46:10.525Z,-36.49
2023-02-28T05:48:38.780Z,-36.50
2023-02-28T05:51:06.262Z,-36.51
2023-02-28T05:53:33.127Z,-36.48
2023-02-28T05:56:00.361Z,-36.61
2023-02-28T05:58:31.540Z,-36.47
2023-02-28T06:00:59.251Z,-36.41
2023-02-28T06:03:26.221Z,-36.39
2023-02-28T06:05:52.936Z,-36.50
2023-02-28T06:08:19.575Z,-36.42
2023-02-28T06:10:46.434Z,-36.27
2023-02-28T06:13:13.845Z,-36.19
2023-02-28T06:15:40.546Z,-36.15
2023-02-28T06:18:07.455Z,-36.10
2023-02-28T06:20:34.457Z,-36.06
2023-02-28T06:23:01.171Z,-36.01
2023-02-28T06:25:28.988Z,-35.91
2023-02-28T06:27:57.000Z,-35.98
2023-02-28T06:30:27.634Z,-35.85
2023-02-28T06:32:57.684Z,-35.85
2023-02-28T06:35:24.343Z,-35.87
2023-02-28T06:37:51.098Z,-35.84
2023-02-28T06:40:18.094Z,-35.59
2023-02-28T06:42:48.019Z,-35.57
2023-02-28T06:45:17.761Z,-35.51
2023-02-28T06:47:44.648Z,-35.35
2023-02-28T06:50:13.480Z,-35.25
2023-02-28T06:52:40.586Z,-35.19
2023-02-28T06:55:08.872Z,-35.05
2023-02-28T06:57:36.465Z,-34.84
2023-02-28T07:00:08.687Z,-34.77
2023-02-28T07:02:40.432Z,-34.81
2023-02-28T07:05:07.337Z,-34.75
2023-02-28T07:07:34.412Z,-34.73
2023-02-28T07:10:01.159Z,-34.57
2023-02-28T07:12:27.673Z,-34.38
2023-02-28T07:14:57.468Z,-34.46
2023-02-28T07:17:24.125Z,-34.36
2023-02-28T07:19:50.651Z,-34.29
2023-02-28T07:22:17.267Z,-34.33
2023-02-28T07:24:43.970Z,-34.15
2023-02-28T07:27:10.634Z,-33.94
2023-02-28T07:29:38.454Z,-33.72
2023-02-28T07:32:05.333Z,-33.59
2023-02-28T07:34:31.890Z,-33.58
2023-02-28T07:36:58.646Z,-33.44
2023-02-28T07:39:25.323Z,-33.46
2023-02-28T07:41:51.867Z,-33.43
2023-02-28T07:44:18.636Z,-33.44
2023-02-28T07:46:45.596Z,-33.29
2023-02-28T07:49:12.185Z,-33.05
2023-02-28T07:51:39.040Z,-32.88
2023-02-28T07:54:09.936Z,-32.49
2023-02-28T07:56:36.520Z,-31.26
2023-02-28T07:59:03.170Z,-29.38
2023-02-28T08:01:30.247Z,-25.11
2023-02-28T08:03:58.058Z,-21.18
2023-02-28T08:06:25.766Z,-19.52
2023-02-28T08:08:52.684Z,-17.76
2023-02-28T08:11:19.378Z,-15.44
2023-02-28T08:13:47.032Z,-14.04
2023-02-28T08:16:23.192Z,-12.69
2023-02-28T08:18:51.391Z,-11.94
2023-02-28T08:21:18.270Z,-11.64
2023-02-28T08:23:45.072Z,-10.43
2023-02-28T08:26:12.261Z,-10.19
2023-02-28T08:28:39.391Z,-10.51
2023-02-28T08:31:11.709Z,-12.12
2023-02-28T08:33:41.333Z,-11.83
2023-02-28T08:36:09.190Z,-11.96
2023-02-28T08:38:36.800Z,-12.21
2023-02-28T08:41:09.833Z,-15.87
2023-02-28T08:43:36.676Z,-14.23
2023-02-28T08:46:04.688Z,-12.55
2023-02-28T08:48:32.935Z,-13.47
2023-02-28T08:51:08.333Z,-12.70
2023-02-28T08:53:37.135Z,-13.67
2023-02-28T08:56:09.431Z,-16.85
2023-02-28T08:58:37.802Z,-17.60
2023-02-28T09:01:10.599Z,-15.50
2023-02-28T09:03:37.664Z,-13.44
2023-02-28T09:06:05.833Z,-12.15
2023-02-28T09:08:32.875Z,-15.56
2023-02-28T09:11:02.398Z,-18.37
2023-02-28T09:13:30.276Z,-20.87
2023-02-28T09:16:01.910Z,-23.39
2023-02-28T09:18:28.657Z,-24.61
2023-02-28T09:20:57.815Z,-26.11
2023-02-28T09:23:24.898Z,-26.04
2023-02-28T09:25:53.566Z,-25.94
2023-02-28T09:28:21.011Z,-25.96
2023-02-28T09:30:49.564Z,-25.91
2023-02-28T09:33:17.215Z,-26.47
2023-02-28T09:35:44.391Z,-27.95
2023-02-28T09:38:11.362Z,-27.19
2023-02-28T09:40:50.420Z,-27.19
2023-02-28T09:43:18.748Z,-27.74
2023-02-28T09:45:50.222Z,-27.79
2023-02-28T09:48:23.075Z,-27.95
2023-02-28T09:50:57.674Z,-28.23
2023-02-28T09:53:34.774Z,-28.27
2023-02-28T09:56:09.416Z,-28.39
2023-02-28T09:58:50.799Z,-28.02
2023-02-28T10:01:27.174Z,-27.80
2023-02-28T10:04:26.187Z,-28.35
2023-02-28T10:06:54.096Z,-28.64
2023-02-28T10:09:28.247Z,-28.86
2023-02-28T10:12:00.826Z,-29.05
2023-02-28T10:14:29.571Z,-29.35
2023-02-28T10:17:15.033Z,-29.22
2023-02-28T10:19:50.326Z,-28.94
2023-02-28T10:22:30.434Z,-29.12
2023-02-28T10:25:02.159Z,-29.17
2023-02-28T10:27:33.360Z,-29.26
2023-02-28T10:30:04.928Z,-29.35
2023-02-28T10:32:35.929Z,-29.77
2023-02-28T10:35:12.383Z,-29.50
2023-02-28T10:37:42.745Z,-29.63
2023-02-28T10:40:32.815Z,-30.06
2023-02-28T10:43:20.529Z,-30.23
2023-02-28T10:46:15.932Z,-29.94
2023-02-28T10:48:45.944Z,-29.72
2023-02-28T10:51:17.951Z,-29.94
2023-02-28T10:53:59.525Z,-29.93
2023-02-28T10:56:26.767Z,-29.72
2023-02-28T10:58:56.205Z,-29.71
2023-02-28T11:01:38.622Z,-29.51
2023-02-28T11:04:41.196Z,-29.61
2023-02-28T11:07:24.579Z,-30.51
2023-02-28T11:09:54.354Z,-30.60
2023-02-28T11:12:26.729Z,-30.11
2023-02-28T11:14:57.373Z,-29.96
2023-02-28T11:17:32.842Z,-29.74
2023-02-28T11:20:15.431Z,-30.29
2023-02-28T11:22:45.470Z,-30.50
2023-02-28T11:25:22.673Z,-30.08
2023-02-28T11:27:54.256Z,-29.90
2023-02-28T11:30:25.221Z,-30.09
2023-02-28T11:32:51.908Z,-30.10
2023-02-28T11:35:24.577Z,-30.35
2023-02-28T11:37:51.427Z,-29.98
2023-02-28T11:40:20.566Z,-29.94
2023-02-28T11:42:54.598Z,-29.77
2023-02-28T11:45:46.233Z,-29.83
2023-02-28T11:48:22.471Z,-29.70
2023-02-28T11:51:01.551Z,-29.62
2023-02-28T11:53:46.968Z,-29.46
2023-02-28T11:56:25.392Z,-30.01
2023-02-28T11:59:04.951Z,-30.09
2023-02-28T12:01:43.739Z,-29.74
2023-02-28T12:04:29.293Z,-29.37
2023-02-28T12:07:00.384Z,-29.11
2023-02-28T12:09:42.487Z,-29.13
2023-02-28T12:12:36.610Z,-29.22
2023-02-28T12:15:09.413Z,-29.35
2023-02-28T12:17:43.680Z,-29.37
2023-02-28T12:20:19.809Z,-29.45
2023-02-28T12:22:49.406Z,-29.11
2023-02-28T12:25:31.149Z,-29.47
2023-02-28T12:27:58.063Z,-29.65
2023-02-28T12:30:33.550Z,-29.10
2023-02-28T12:33:12.027Z,-29.12
2023-02-28T12:35:58.739Z,-29.04
2023-02-28T12:38:28.856Z,-28.89
2023-02-28T12:41:09.691Z,-29.29
2023-02-28T12:43:39.632Z,-29.19
2023-02-28T12:46:25.719Z,-28.78
2023-02-28T12:48:57.736Z,-28.65
2023-02-28T12:51:25.875Z,-28.92
2023-02-28T12:54:06.378Z,-28.81
2023-02-28T12:56:57.594Z,-28.90
2023-02-28T12:59:48.427Z,-28.75
2023-02-28T13:02:21.423Z,-28.63
2023-02-28T13:05:12.901Z,-28.93
2023-02-28T13:08:09.204Z,-28.81
2023-02-28T13:10:57.755Z,-28.82
2023-02-28T13:13:27.592Z,-28.87
2023-02-28T13:16:08.968Z,-29.24
2023-02-28T13:18:46.185Z,-29.44
2023-02-28T13:21:30.428Z,-29.00
2023-02-28T13:24:05.495Z,-28.87
2023-02-28T13:26:32.138Z,-28.69
2023-02-28T13:29:01.888Z,-28.85
2023-02-28T13:31:29.178Z,-28.81
2023-02-28T13:33:58.305Z,-28.77
2023-02-28T13:36:33.426Z,-28.59
2023-02-28T13:39:03.336Z,-28.29
2023-02-28T13:41:30.995Z,-28.32
2023-02-28T13:44:11.382Z,-28.17
2023-02-28T13:46:58.505Z,-28.19
2023-02-28T13:49:28.961Z,-28.56
2023-02-28T13:52:08.571Z,-28.94
2023-02-28T13:54:47.112Z,-28.90
2023-02-28T13:57:38.417Z,-28.76
2023-02-28T14:00:08.763Z,-29.03
2023-02-28T14:02:58.492Z,-29.03
2023-02-28T14:05:28.781Z,-29.36
2023-02-28T14:07:59.332Z,-29.09
2023-02-28T14:11:04.620Z,-29.20
2023-02-28T14:13:48.017Z,-29.64
2023-02-28T14:16:16.103Z,-29.53
2023-02-28T14:18:51.037Z,-29.56
2023-02-28T14:21:30.252Z,-29.34
2023-02-28T14:24:02.992Z,-29.66
2023-02-28T14:27:02.892Z,-29.68
2023-02-28T14:29:52.133Z,-29.63
2023-02-28T14:32:51.080Z,-29.71
2023-02-28T14:36:01.901Z,-29.65
2023-02-28T14:38:32.699Z,-30.05
2023-02-28T14:41:01.997Z,-29.65
2023-02-28T14:43:29.553Z,-29.53
2023-02-28T14:45:58.861Z,-29.56
2023-02-28T22:00:53.784Z,-36.07
2023-02-28T22:03:20.322Z,-36.15
2023-02-28T22:05:46.790Z,-36.24
2023-02-28T22:08:13.463Z,-36.21
2023-02-28T22:10:39.930Z,-36.21
2023-02-28T22:13:06.720Z,-36.22
2023-02-28T22:15:37.431Z,-36.15
2023-02-28T22:18:04.102Z,-36.26
2023-02-28T22:20:30.543Z,-36.34
2023-02-28T22:22:58.341Z,-36.33
2023-02-28T22:25:24.911Z,-36.28
2023-02-28T22:27:51.374Z,-36.36
2023-02-28T22:30:18.316Z,-36.34
2023-02-28T22:32:44.783Z,-36.34
2023-02-28T22:35:11.302Z,-36.29
2023-02-28T22:37:37.951Z,-36.47
2023-02-28T22:40:05.253Z,-36.39
2023-02-28T22:42:34.576Z,-36.38
2023-02-28T22:45:01.214Z,-36.40
2023-02-28T22:47:27.732Z,-36.40
2023-02-28T22:49:54.200Z,-36.42
2023-02-28T22:52:20.759Z,-36.36
2023-02-28T22:54:50.030Z,-36.43
2023-02-28T22:57:16.494Z,-36.36
2023-02-28T22:59:43.159Z,-36.48
2023-02-28T23:02:09.611Z,-36.44
2023-02-28T23:04:36.208Z,-36.41
2023-02-28T23:07:02.771Z,-36.43
2023-02-28T23:09:29.317Z,-36.37
2023-02-28T23:11:56.042Z,-36.43
2023-02-28T23:14:22.682Z,-36.34
2023-02-28T23:16:51.938Z,-36.25
2023-02-28T23:19:31.829Z,-36.20
2023-02-28T23:21:59.346Z,-36.14
2023-02-28T23:24:27.644Z,-36.22
2023-02-28T23:26:57.127Z,-36.25
2023-02-28T23:29:25.114Z,-36.43
2023-02-28T23:31:52.179Z,-36.35
2023-02-28T23:34:26.245Z,-36.38
2023-02-28T23:36:53.953Z,-36.35
2023-02-28T23:39:21.237Z,-36.43
2023-02-28T23:41:48.014Z,-36.32
2023-02-28T23:44:17.040Z,-36.39
2023-02-28T23:46:45.215Z,-36.33
2023-02-28T23:49:11.855Z,-36.43
2023-02-28T23:51:38.494Z,-36.47
2023-02-28T23:54:05.091Z,-36.61
2023-02-28T23:56:32.399Z,-36.49
2023-02-28T23:58:59.132Z,-36.46
